sensor_id;sensor_type;location;lat;lon;timestamp;temperature;humidity
56103;DHT22;41970;48.774;9.280;2022-09-13T00:00:41;16.80;97.10
56103;DHT22;41970;48.774;9.280;2022-09-13T00:03:10;17.00;97.00
56103;DHT22;41970;48.774;9.280;2022-09-13T00:05:37;17.00;97.00
56103;DHT22;41970;48.774;9.280;2022-09-13T00:08:04;17.10;96.90
56103;DHT22;41970;48.774;9.280;2022-09-13T00:10:30;17.10;96.80
56103;DHT22;41970;48.774;9.280;2022-09-13T00:12:59;17.10;96.70
56103;DHT22;41970;48.774;9.280;2022-09-13T00:15:26;17.10;96.80
56103;DHT22;41970;48.774;9.280;2022-09-13T00:17:52;17.10;96.90
56103;DHT22;41970;48.774;9.280;2022-09-13T00:20:17;17.10;96.90
56103;DHT22;41970;48.774;9.280;2022-09-13T00:22:43;17.10;96.70
56103;DHT22;41970;48.774;9.280;2022-09-13T00:25:09;17.00;96.70
56103;DHT22;41970;48.774;9.280;2022-09-13T00:27:35;17.10;96.70
56103;DHT22;41970;48.774;9.280;2022-09-13T00:30:03;17.10;96.80
56103;DHT22;41970;48.774;9.280;2022-09-13T00:32:30;17.00;97.00
56103;DHT22;41970;48.774;9.280;2022-09-13T00:34:56;16.70;97.50
56103;DHT22;41970;48.774;9.280;2022-09-13T00:37:21;16.50;97.80
56103;DHT22;41970;48.774;9.280;2022-09-13T00:39:47;16.60;97.80
56103;DHT22;41970;48.774;9.280;2022-09-13T00:42:13;16.50;98.00
56103;DHT22;41970;48.774;9.280;2022-09-13T00:45:16;16.50;98.00
56103;DHT22;41970;48.774;9.280;2022-09-13T00:47:54;16.70;98.00
56103;DHT22;41970;48.774;9.280;2022-09-13T00:50:41;16.70;97.90
56103;DHT22;41970;48.774;9.280;2022-09-13T00:53:18;16.80;97.80
56103;DHT22;41970;48.774;9.280;2022-09-13T00:58:21;16.80;97.70
56103;DHT22;41970;48.774;9.280;2022-09-13T01:00:49;16.80;97.70
56103;DHT22;41970;48.774;9.280;2022-09-13T01:03:17;16.90;97.50
56103;DHT22;41970;48.774;9.280;2022-09-13T01:06:01;16.80;97.60
56103;DHT22;41970;48.774;9.280;2022-09-13T01:08:28;16.70;97.70
56103;DHT22;41970;48.774;9.280;2022-09-13T01:10:58;16.70;97.80
56103;DHT22;41970;48.774;9.280;2022-09-13T01:13:29;16.80;97.90
56103;DHT22;41970;48.774;9.280;2022-09-13T01:15:57;16.70;97.80
56103;DHT22;41970;48.774;9.280;2022-09-13T01:18:23;16.80;98.10
56103;DHT22;41970;48.774;9.280;2022-09-13T01:29:33;16.70;98.00
56103;DHT22;41970;48.774;9.280;2022-09-13T01:57:50;16.60;98.10
56103;DHT22;41970;48.774;9.280;2022-09-13T02:00:19;16.50;98.20
56103;DHT22;41970;48.774;9.280;2022-09-13T02:05:34;16.60;98.10
56103;DHT22;41970;48.774;9.280;2022-09-13T02:08:09;16.60;98.20
56103;DHT22;41970;48.774;9.280;2022-09-13T02:10:45;16.50;98.30
56103;DHT22;41970;48.774;9.280;2022-09-13T02:13:17;16.50;98.10
56103;DHT22;41970;48.774;9.280;2022-09-13T02:15:52;16.50;98.20
56103;DHT22;41970;48.774;9.280;2022-09-13T02:18:21;16.60;98.10
56103;DHT22;41970;48.774;9.280;2022-09-13T02:20:49;16.60;98.10
56103;DHT22;41970;48.774;9.280;2022-09-13T02:23:22;16.50;98.10
56103;DHT22;41970;48.774;9.280;2022-09-13T02:25:50;16.60;98.30
56103;DHT22;41970;48.774;9.280;2022-09-13T02:28:22;16.50;98.40
56103;DHT22;41970;48.774;9.280;2022-09-13T02:30:53;16.50;98.50
56103;DHT22;41970;48.774;9.280;2022-09-13T02:34:02;16.50;98.60
56103;DHT22;41970;48.774;9.280;2022-09-13T02:36:27;16.50;98.60
56103;DHT22;41970;48.774;9.280;2022-09-13T02:38:59;16.50;98.50
56103;DHT22;41970;48.774;9.280;2022-09-13T02:41:34;16.50;98.70
56103;DHT22;41970;48.774;9.280;2022-09-13T02:44:17;16.40;98.40
56103;DHT22;41970;48.774;9.280;2022-09-13T02:55:24;16.30;98.60
56103;DHT22;41970;48.774;9.280;2022-09-13T02:58:03;16.40;98.50
56103;DHT22;41970;48.774;9.280;2022-09-13T03:00:31;16.40;98.50
56103;DHT22;41970;48.774;9.280;2022-09-13T03:03:01;16.30;98.60
56103;DHT22;41970;48.774;9.280;2022-09-13T03:05:29;16.30;98.70
56103;DHT22;41970;48.774;9.280;2022-09-13T03:07:55;16.40;98.80
56103;DHT22;41970;48.774;9.280;2022-09-13T03:10:21;16.30;98.70
56103;DHT22;41970;48.774;9.280;2022-09-13T03:40:06;16.10;99.90
56103;DHT22;41970;48.774;9.280;2022-09-13T03:43:27;16.10;99.90
56103;DHT22;41970;48.774;9.280;2022-09-13T03:45:52;16.20;99.80
56103;DHT22;41970;48.774;9.280;2022-09-13T03:48:19;16.20;99.80
56103;DHT22;41970;48.774;9.280;2022-09-13T03:50:47;16.20;99.50
56103;DHT22;41970;48.774;9.280;2022-09-13T03:53:22;16.30;99.60
56103;DHT22;41970;48.774;9.280;2022-09-13T03:55:48;16.30;99.40
56103;DHT22;41970;48.774;9.280;2022-09-13T03:58:16;16.30;99.40
56103;DHT22;41970;48.774;9.280;2022-09-13T04:00:42;16.20;99.50
56103;DHT22;41970;48.774;9.280;2022-09-13T04:03:09;16.20;99.50
56103;DHT22;41970;48.774;9.280;2022-09-13T04:05:35;16.20;99.50
56103;DHT22;41970;48.774;9.280;2022-09-13T04:08:02;16.20;99.50
56103;DHT22;41970;48.774;9.280;2022-09-13T04:10:31;16.20;99.50
56103;DHT22;41970;48.774;9.280;2022-09-13T04:12:58;16.20;99.50
56103;DHT22;41970;48.774;9.280;2022-09-13T04:15:28;16.20;99.40
56103;DHT22;41970;48.774;9.280;2022-09-13T04:17:56;16.20;99.30
56103;DHT22;41970;48.774;9.280;2022-09-13T04:20:21;16.20;99.40
56103;DHT22;41970;48.774;9.280;2022-09-13T04:22:53;16.20;99.40
56103;DHT22;41970;48.774;9.280;2022-09-13T04:25:19;16.20;99.50
56103;DHT22;41970;48.774;9.280;2022-09-13T04:27:47;16.20;99.50
56103;DHT22;41970;48.774;9.280;2022-09-13T04:30:14;16.10;99.40
56103;DHT22;41970;48.774;9.280;2022-09-13T04:32:42;16.10;99.40
56103;DHT22;41970;48.774;9.280;2022-09-13T04:35:09;16.10;99.60
56103;DHT22;41970;48.774;9.280;2022-09-13T04:37:36;16.10;99.80
56103;DHT22;41970;48.774;9.280;2022-09-13T04:40:05;16.20;99.80
56103;DHT22;41970;48.774;9.280;2022-09-13T04:42:31;16.10;99.70
56103;DHT22;41970;48.774;9.280;2022-09-13T04:44:57;16.10;99.80
56103;DHT22;41970;48.774;9.280;2022-09-13T04:47:23;16.10;99.90
56103;DHT22;41970;48.774;9.280;2022-09-13T04:49:48;16.10;99.90
56103;DHT22;41970;48.774;9.280;2022-09-13T04:52:15;16.20;99.90
56103;DHT22;41970;48.774;9.280;2022-09-13T04:54:41;16.20;99.90
56103;DHT22;41970;48.774;9.280;2022-09-13T04:57:06;16.20;99.90
56103;DHT22;41970;48.774;9.280;2022-09-13T04:59:33;16.10;99.90
56103;DHT22;41970;48.774;9.280;2022-09-13T05:01:58;16.00;99.90
56103;DHT22;41970;48.774;9.280;2022-09-13T05:04:24;16.00;99.90
56103;DHT22;41970;48.774;9.280;2022-09-13T05:06:50;16.00;99.90
56103;DHT22;41970;48.774;9.280;2022-09-13T05:09:17;16.00;99.90
56103;DHT22;41970;48.774;9.280;2022-09-13T05:11:43;16.10;99.90
56103;DHT22;41970;48.774;9.280;2022-09-13T05:14:10;16.20;99.90
56103;DHT22;41970;48.774;9.280;2022-09-13T05:16:36;16.20;99.90
56103;DHT22;41970;48.774;9.280;2022-09-13T05:19:03;16.20;99.90
56103;DHT22;41970;48.774;9.280;2022-09-13T05:21:29;16.30;99.90
56103;DHT22;41970;48.774;9.280;2022-09-13T05:23:56;16.30;99.90
56103;DHT22;41970;48.774;9.280;2022-09-13T05:26:24;16.30;99.90
56103;DHT22;41970;48.774;9.280;2022-09-13T05:28:50;16.30;99.90
56103;DHT22;41970;48.774;9.280;2022-09-13T05:31:23;16.30;99.90
56103;DHT22;41970;48.774;9.280;2022-09-13T05:33:54;16.40;99.90
56103;DHT22;41970;48.774;9.280;2022-09-13T05:36:20;16.40;99.90
56103;DHT22;41970;48.774;9.280;2022-09-13T05:38:46;16.40;99.90
56103;DHT22;41970;48.774;9.280;2022-09-13T05:41:11;16.50;99.90
56103;DHT22;41970;48.774;9.280;2022-09-13T05:43:37;16.50;99.90
56103;DHT22;41970;48.774;9.280;2022-09-13T05:46:11;16.50;99.90
56103;DHT22;41970;48.774;9.280;2022-09-13T05:48:38;16.50;99.90
56103;DHT22;41970;48.774;9.280;2022-09-13T05:51:06;16.50;99.90
56103;DHT22;41970;48.774;9.280;2022-09-13T05:53:33;16.60;99.90
56103;DHT22;41970;48.774;9.280;2022-09-13T05:56:00;16.60;99.90
56103;DHT22;41970;48.774;9.280;2022-09-13T05:58:25;16.60;99.90
56103;DHT22;41970;48.774;9.280;2022-09-13T06:00:53;16.60;99.90
56103;DHT22;41970;48.774;9.280;2022-09-13T06:03:20;16.60;99.90
56103;DHT22;41970;48.774;9.280;2022-09-13T06:05:46;16.60;99.90
56103;DHT22;41970;48.774;9.280;2022-09-13T06:08:12;16.70;99.90
56103;DHT22;41970;48.774;9.280;2022-09-13T06:10:37;16.70;99.90
56103;DHT22;41970;48.774;9.280;2022-09-13T06:13:03;16.70;99.90
56103;DHT22;41970;48.774;9.280;2022-09-13T06:15:29;16.70;99.90
56103;DHT22;41970;48.774;9.280;2022-09-13T06:17:55;16.80;99.90
56103;DHT22;41970;48.774;9.280;2022-09-13T06:20:21;16.80;99.90
56103;DHT22;41970;48.774;9.280;2022-09-13T06:22:47;16.90;99.90
56103;DHT22;41970;48.774;9.280;2022-09-13T06:25:13;16.90;99.90
56103;DHT22;41970;48.774;9.280;2022-09-13T06:27:39;17.00;99.90
56103;DHT22;41970;48.774;9.280;2022-09-13T06:30:06;17.00;99.90
56103;DHT22;41970;48.774;9.280;2022-09-13T06:32:34;17.00;99.90
56103;DHT22;41970;48.774;9.280;2022-09-13T06:35:00;17.10;99.90
56103;DHT22;41970;48.774;9.280;2022-09-13T06:37:26;17.10;99.90
56103;DHT22;41970;48.774;9.280;2022-09-13T06:39:51;17.20;99.90
56103;DHT22;41970;48.774;9.280;2022-09-13T06:42:17;17.20;99.90
56103;DHT22;41970;48.774;9.280;2022-09-13T06:44:43;17.30;99.90
56103;DHT22;41970;48.774;9.280;2022-09-13T06:47:11;17.30;99.90
56103;DHT22;41970;48.774;9.280;2022-09-13T06:49:37;17.40;99.90
56103;DHT22;41970;48.774;9.280;2022-09-13T06:52:04;17.50;99.90
56103;DHT22;41970;48.774;9.280;2022-09-13T06:54:30;17.50;99.90
56103;DHT22;41970;48.774;9.280;2022-09-13T06:56:55;17.60;99.90
56103;DHT22;41970;48.774;9.280;2022-09-13T06:59:21;17.60;99.90
56103;DHT22;41970;48.774;9.280;2022-09-13T07:01:47;17.70;99.80
56103;DHT22;41970;48.774;9.280;2022-09-13T07:04:15;17.70;99.80
56103;DHT22;41970;48.774;9.280;2022-09-13T07:06:43;17.70;99.80
56103;DHT22;41970;48.774;9.280;2022-09-13T07:09:12;17.80;99.60
56103;DHT22;41970;48.774;9.280;2022-09-13T07:11:40;17.80;99.70
56103;DHT22;41970;48.774;9.280;2022-09-13T07:14:07;17.90;99.80
56103;DHT22;41970;48.774;9.280;2022-09-13T07:16:37;18.00;99.70
56103;DHT22;41970;48.774;9.280;2022-09-13T07:19:05;18.00;99.50
56103;DHT22;41970;48.774;9.280;2022-09-13T07:21:33;18.10;99.60
56103;DHT22;41970;48.774;9.280;2022-09-13T07:23:59;18.20;99.40
56103;DHT22;41970;48.774;9.280;2022-09-13T07:26:26;18.30;99.30
56103;DHT22;41970;48.774;9.280;2022-09-13T07:28:54;18.40;99.30
56103;DHT22;41970;48.774;9.280;2022-09-13T07:31:29;18.60;99.40
56103;DHT22;41970;48.774;9.280;2022-09-13T07:33:57;18.90;98.40
56103;DHT22;41970;48.774;9.280;2022-09-13T07:36:25;19.20;98.00
56103;DHT22;41970;48.774;9.280;2022-09-13T07:38:52;19.40;97.50
56103;DHT22;41970;48.774;9.280;2022-09-13T07:41:20;19.50;97.50
56103;DHT22;41970;48.774;9.280;2022-09-13T07:43:46;19.60;97.80
56103;DHT22;41970;48.774;9.280;2022-09-13T07:46:21;20.20;97.00
56103;DHT22;41970;48.774;9.280;2022-09-13T07:48:47;20.80;95.90
56103;DHT22;41970;48.774;9.280;2022-09-13T07:51:19;21.00;94.70
56103;DHT22;41970;48.774;9.280;2022-09-13T07:53:46;21.10;95.20
56103;DHT22;41970;48.774;9.280;2022-09-13T07:56:18;21.40;95.20
56103;DHT22;41970;48.774;9.280;2022-09-13T07:58:46;22.00;94.00
56103;DHT22;41970;48.774;9.280;2022-09-13T08:01:18;22.60;92.90
56103;DHT22;41970;48.774;9.280;2022-09-13T08:03:51;23.20;92.50
56103;DHT22;41970;48.774;9.280;2022-09-13T08:06:17;23.30;91.10
56103;DHT22;41970;48.774;9.280;2022-09-13T08:08:43;23.50;91.50
56103;DHT22;41970;48.774;9.280;2022-09-13T08:11:18;23.60;91.10
56103;DHT22;41970;48.774;9.280;2022-09-13T08:13:45;23.70;90.90
56103;DHT22;41970;48.774;9.280;2022-09-13T08:16:12;23.80;90.30
56103;DHT22;41970;48.774;9.280;2022-09-13T08:18:43;23.80;90.40
56103;DHT22;41970;48.774;9.280;2022-09-13T08:21:10;24.10;90.80
56103;DHT22;41970;48.774;9.280;2022-09-13T08:23:36;24.20;90.00
56103;DHT22;41970;48.774;9.280;2022-09-13T08:26:02;24.20;90.20
56103;DHT22;41970;48.774;9.280;2022-09-13T08:28:28;24.20;89.60
56103;DHT22;41970;48.774;9.280;2022-09-13T08:31:05;24.10;90.20
56103;DHT22;41970;48.774;9.280;2022-09-13T08:33:31;24.20;90.00
56103;DHT22;41970;48.774;9.280;2022-09-13T08:35:57;23.90;89.20
56103;DHT22;41970;48.774;9.280;2022-09-13T08:38:23;23.40;88.80
56103;DHT22;41970;48.774;9.280;2022-09-13T08:40:54;22.90;90.30
56103;DHT22;41970;48.774;9.280;2022-09-13T08:43:31;22.50;90.90
56103;DHT22;41970;48.774;9.280;2022-09-13T08:46:05;22.70;91.50
56103;DHT22;41970;48.774;9.280;2022-09-13T08:48:39;22.90;92.00
56103;DHT22;41970;48.774;9.280;2022-09-13T08:51:56;23.50;90.40
56103;DHT22;41970;48.774;9.280;2022-09-13T08:54:02;23.50;90.40
56103;DHT22;41970;48.774;9.280;2022-09-13T09:02:26;22.90;90.50
56103;DHT22;41970;48.774;9.280;2022-09-13T09:05:14;22.90;90.60
56103;DHT22;41970;48.774;9.280;2022-09-13T09:07:46;23.40;90.50
56103;DHT22;41970;48.774;9.280;2022-09-13T09:10:18;23.50;87.20
56103;DHT22;41970;48.774;9.280;2022-09-13T09:12:54;23.10;88.40
56103;DHT22;41970;48.774;9.280;2022-09-13T09:17:52;22.90;89.40
56103;DHT22;41970;48.774;9.280;2022-09-13T09:20:36;23.40;89.80
56103;DHT22;41970;48.774;9.280;2022-09-13T09:23:12;23.90;87.40
56103;DHT22;41970;48.774;9.280;2022-09-13T09:25:38;23.50;86.20
56103;DHT22;41970;48.774;9.280;2022-09-13T09:28:15;23.40;87.40
56103;DHT22;41970;48.774;9.280;2022-09-13T09:31:08;23.60;87.70
56103;DHT22;41970;48.774;9.280;2022-09-13T09:38:58;24.40;86.90
56103;DHT22;41970;48.774;9.280;2022-09-13T09:41:30;24.50;85.90
56103;DHT22;41970;48.774;9.280;2022-09-13T09:44:20;24.60;85.90
56103;DHT22;41970;48.774;9.280;2022-09-13T09:55:44;25.40;84.90
56103;DHT22;41970;48.774;9.280;2022-09-13T09:58:12;25.60;83.30
56103;DHT22;41970;48.774;9.280;2022-09-13T10:00:52;25.80;82.50
56103;DHT22;41970;48.774;9.280;2022-09-13T10:03:30;25.90;82.00
56103;DHT22;41970;48.774;9.280;2022-09-13T10:06:08;25.80;81.20
56103;DHT22;41970;48.774;9.280;2022-09-13T10:08:37;25.80;80.20
56103;DHT22;41970;48.774;9.280;2022-09-13T10:11:05;25.70;81.20
56103;DHT22;41970;48.774;9.280;2022-09-13T10:13:31;25.70;80.60
56103;DHT22;41970;48.774;9.280;2022-09-13T10:16:24;25.60;80.70
56103;DHT22;41970;48.774;9.280;2022-09-13T10:18:50;25.70;80.80
56103;DHT22;41970;48.774;9.280;2022-09-13T10:23:43;25.70;80.10
56103;DHT22;41970;48.774;9.280;2022-09-13T10:26:13;25.70;81.50
56103;DHT22;41970;48.774;9.280;2022-09-13T10:28:57;25.70;81.30
56103;DHT22;41970;48.774;9.280;2022-09-13T10:31:34;25.80;80.60
56103;DHT22;41970;48.774;9.280;2022-09-13T10:34:23;25.80;79.80
56103;DHT22;41970;48.774;9.280;2022-09-13T10:37:03;25.80;80.50
56103;DHT22;41970;48.774;9.280;2022-09-13T10:39:33;25.80;78.90
56103;DHT22;41970;48.774;9.280;2022-09-13T10:42:08;25.90;79.70
56103;DHT22;41970;48.774;9.280;2022-09-13T10:47:17;26.20;75.10
56103;DHT22;41970;48.774;9.280;2022-09-13T10:49:52;26.20;75.30
56103;DHT22;41970;48.774;9.280;2022-09-13T10:52:25;26.30;72.80
56103;DHT22;41970;48.774;9.280;2022-09-13T10:54:52;26.30;72.20
56103;DHT22;41970;48.774;9.280;2022-09-13T10:57:34;26.40;70.60
56103;DHT22;41970;48.774;9.280;2022-09-13T11:00:04;26.40;69.20
56103;DHT22;41970;48.774;9.280;2022-09-13T11:08:06;26.60;69.60
56103;DHT22;41970;48.774;9.280;2022-09-13T11:11:34;26.70;70.30
56103;DHT22;41970;48.774;9.280;2022-09-13T11:14:05;26.50;71.90
56103;DHT22;41970;48.774;9.280;2022-09-13T11:16:43;26.70;70.00
56103;DHT22;41970;48.774;9.280;2022-09-13T11:25:06;26.80;70.40
56103;DHT22;41970;48.774;9.280;2022-09-13T11:30:53;26.60;70.10
56103;DHT22;41970;48.774;9.280;2022-09-13T11:33:48;26.50;69.90
56103;DHT22;41970;48.774;9.280;2022-09-13T11:39:02;26.60;70.10
56103;DHT22;41970;48.774;9.280;2022-09-13T11:41:43;26.70;69.20
56103;DHT22;41970;48.774;9.280;2022-09-13T11:56:03;27.20;63.60
56103;DHT22;41970;48.774;9.280;2022-09-13T11:58:37;27.20;59.80
56103;DHT22;41970;48.774;9.280;2022-09-13T12:01:10;27.10;59.20
56103;DHT22;41970;48.774;9.280;2022-09-13T12:06:49;27.20;59.80
56103;DHT22;41970;48.774;9.280;2022-09-13T12:09:28;27.10;61.10
56103;DHT22;41970;48.774;9.280;2022-09-13T12:12:04;27.10;61.80
56103;DHT22;41970;48.774;9.280;2022-09-13T12:14:58;27.10;60.90
56103;DHT22;41970;48.774;9.280;2022-09-13T12:17:52;27.40;58.20
56103;DHT22;41970;48.774;9.280;2022-09-13T12:20:36;27.50;58.70
56103;DHT22;41970;48.774;9.280;2022-09-13T12:23:10;27.60;60.00
56103;DHT22;41970;48.774;9.280;2022-09-13T12:25:49;27.60;60.00
56103;DHT22;41970;48.774;9.280;2022-09-13T12:28:33;27.60;56.00
56103;DHT22;41970;48.774;9.280;2022-09-13T12:31:10;27.70;55.40
56103;DHT22;41970;48.774;9.280;2022-09-13T12:33:40;27.80;54.80
56103;DHT22;41970;48.774;9.280;2022-09-13T12:39:46;27.80;55.20
56103;DHT22;41970;48.774;9.280;2022-09-13T12:45:37;27.60;55.00
56103;DHT22;41970;48.774;9.280;2022-09-13T12:53:40;27.30;54.70
56103;DHT22;41970;48.774;9.280;2022-09-13T13:01:29;27.40;56.90
56103;DHT22;41970;48.774;9.280;2022-09-13T13:06:52;27.40;57.40
56103;DHT22;41970;48.774;9.280;2022-09-13T13:11:53;27.70;58.80
56103;DHT22;41970;48.774;9.280;2022-09-13T13:26:03;27.70;49.10
56103;DHT22;41970;48.774;9.280;2022-09-13T13:36:59;27.80;47.10
56103;DHT22;41970;48.774;9.280;2022-09-13T13:42:12;28.20;47.30
56103;DHT22;41970;48.774;9.280;2022-09-13T13:58:11;28.80;54.50
56103;DHT22;41970;48.774;9.280;2022-09-13T14:00:45;28.80;54.70
56103;DHT22;41970;48.774;9.280;2022-09-13T14:06:18;28.70;53.70
56103;DHT22;41970;48.774;9.280;2022-09-13T14:12:00;28.50;54.00
56103;DHT22;41970;48.774;9.280;2022-09-13T14:17:28;28.50;53.90
56103;DHT22;41970;48.774;9.280;2022-09-13T14:19:50;28.40;54.80
56103;DHT22;41970;48.774;9.280;2022-09-13T14:22:24;28.40;56.00
56103;DHT22;41970;48.774;9.280;2022-09-13T14:24:53;28.40;55.70
56103;DHT22;41970;48.774;9.280;2022-09-13T14:27:34;28.40;56.20
56103;DHT22;41970;48.774;9.280;2022-09-13T14:30:16;28.20;56.30
56103;DHT22;41970;48.774;9.280;2022-09-13T14:32:45;28.10;55.80
56103;DHT22;41970;48.774;9.280;2022-09-13T14:35:36;28.00;56.40
56103;DHT22;41970;48.774;9.280;2022-09-13T14:38:21;28.20;57.30
56103;DHT22;41970;48.774;9.280;2022-09-13T14:40:49;28.30;57.20
56103;DHT22;41970;48.774;9.280;2022-09-13T14:43:21;28.40;57.00
56103;DHT22;41970;48.774;9.280;2022-09-13T14:45:51;28.40;56.60
56103;DHT22;41970;48.774;9.280;2022-09-13T14:48:35;28.50;56.30
56103;DHT22;41970;48.774;9.280;2022-09-13T14:51:15;28.60;56.90
56103;DHT22;41970;48.774;9.280;2022-09-13T14:53:46;28.60;55.90
56103;DHT22;41970;48.774;9.280;2022-09-13T14:56:22;28.70;55.10
56103;DHT22;41970;48.774;9.280;2022-09-13T14:58:55;28.60;54.70
56103;DHT22;41970;48.774;9.280;2022-09-13T15:01:29;28.50;54.10
56103;DHT22;41970;48.774;9.280;2022-09-13T15:03:57;28.50;55.70
56103;DHT22;41970;48.774;9.280;2022-09-13T15:06:30;28.30;56.80
56103;DHT22;41970;48.774;9.280;2022-09-13T15:09:25;28.30;56.80
56103;DHT22;41970;48.774;9.280;2022-09-13T15:14:35;28.20;56.90
56103;DHT22;41970;48.774;9.280;2022-09-13T15:17:12;28.20;57.20
56103;DHT22;41970;48.774;9.280;2022-09-13T15:19:49;28.00;57.70
56103;DHT22;41970;48.774;9.280;2022-09-13T15:22:22;27.70;57.70
56103;DHT22;41970;48.774;9.280;2022-09-13T15:24:56;27.60;58.20
56103;DHT22;41970;48.774;9.280;2022-09-13T15:27:44;27.70;58.00
56103;DHT22;41970;48.774;9.280;2022-09-13T15:30:29;27.70;58.00
56103;DHT22;41970;48.774;9.280;2022-09-13T15:35:41;27.80;58.00
56103;DHT22;41970;48.774;9.280;2022-09-13T15:40:43;27.80;59.20
56103;DHT22;41970;48.774;9.280;2022-09-13T15:43:09;27.80;59.00
56103;DHT22;41970;48.774;9.280;2022-09-13T15:45:35;27.80;59.30
56103;DHT22;41970;48.774;9.280;2022-09-13T15:48:02;27.70;59.40
56103;DHT22;41970;48.774;9.280;2022-09-13T15:50:29;27.70;59.80
56103;DHT22;41970;48.774;9.280;2022-09-13T15:53:00;27.70;60.60
56103;DHT22;41970;48.774;9.280;2022-09-13T15:55:27;27.70;61.40
56103;DHT22;41970;48.774;9.280;2022-09-13T15:57:54;27.60;62.30
56103;DHT22;41970;48.774;9.280;2022-09-13T16:00:22;27.70;62.80
56103;DHT22;41970;48.774;9.280;2022-09-13T16:02:48;27.60;63.30
56103;DHT22;41970;48.774;9.280;2022-09-13T16:05:15;27.60;64.40
56103;DHT22;41970;48.774;9.280;2022-09-13T16:07:41;27.60;65.20
56103;DHT22;41970;48.774;9.280;2022-09-13T16:10:27;27.50;64.90
56103;DHT22;41970;48.774;9.280;2022-09-13T16:12:53;27.40;65.70
56103;DHT22;41970;48.774;9.280;2022-09-13T16:15:20;27.40;67.00
56103;DHT22;41970;48.774;9.280;2022-09-13T16:17:45;27.30;68.20
56103;DHT22;41970;48.774;9.280;2022-09-13T16:20:13;27.20;68.10
56103;DHT22;41970;48.774;9.280;2022-09-13T16:22:39;27.10;67.60
56103;DHT22;41970;48.774;9.280;2022-09-13T16:25:06;27.10;68.10
56103;DHT22;41970;48.774;9.280;2022-09-13T16:27:32;27.10;68.30
56103;DHT22;41970;48.774;9.280;2022-09-13T16:29:58;27.10;68.70
56103;DHT22;41970;48.774;9.280;2022-09-13T16:32:24;27.00;68.60
56103;DHT22;41970;48.774;9.280;2022-09-13T16:34:50;26.90;68.40
56103;DHT22;41970;48.774;9.280;2022-09-13T16:37:17;26.90;68.20
56103;DHT22;41970;48.774;9.280;2022-09-13T16:39:44;26.90;69.50
56103;DHT22;41970;48.774;9.280;2022-09-13T16:42:12;26.80;69.10
56103;DHT22;41970;48.774;9.280;2022-09-13T16:44:38;26.80;70.10
56103;DHT22;41970;48.774;9.280;2022-09-13T16:47:04;26.70;70.00
56103;DHT22;41970;48.774;9.280;2022-09-13T16:49:30;26.60;71.10
56103;DHT22;41970;48.774;9.280;2022-09-13T16:51:56;26.50;70.80
56103;DHT22;41970;48.774;9.280;2022-09-13T16:54:25;26.50;70.70
56103;DHT22;41970;48.774;9.280;2022-09-13T16:56:52;26.40;71.50
56103;DHT22;41970;48.774;9.280;2022-09-13T16:59:18;26.10;71.20
56103;DHT22;41970;48.774;9.280;2022-09-13T17:01:44;25.70;72.20
56103;DHT22;41970;48.774;9.280;2022-09-13T17:04:10;25.40;73.10
56103;DHT22;41970;48.774;9.280;2022-09-13T17:06:36;25.20;74.10
56103;DHT22;41970;48.774;9.280;2022-09-13T17:09:04;25.30;74.30
56103;DHT22;41970;48.774;9.280;2022-09-13T17:11:33;25.30;74.30
56103;DHT22;41970;48.774;9.280;2022-09-13T17:14:00;25.20;74.50
56103;DHT22;41970;48.774;9.280;2022-09-13T17:16:39;25.30;74.70
56103;DHT22;41970;48.774;9.280;2022-09-13T17:19:12;25.40;74.60
56103;DHT22;41970;48.774;9.280;2022-09-13T17:21:39;25.50;74.60
56103;DHT22;41970;48.774;9.280;2022-09-13T17:24:06;25.40;74.50
56103;DHT22;41970;48.774;9.280;2022-09-13T17:26:31;25.40;74.90
56103;DHT22;41970;48.774;9.280;2022-09-13T17:28:57;25.30;75.50
56103;DHT22;41970;48.774;9.280;2022-09-13T17:31:23;25.10;75.40
56103;DHT22;41970;48.774;9.280;2022-09-13T17:33:50;25.00;75.80
56103;DHT22;41970;48.774;9.280;2022-09-13T17:36:18;24.70;76.40
56103;DHT22;41970;48.774;9.280;2022-09-13T17:38:44;24.60;76.80
56103;DHT22;41970;48.774;9.280;2022-09-13T17:41:12;24.40;77.20
56103;DHT22;41970;48.774;9.280;2022-09-13T17:43:39;24.20;77.60
56103;DHT22;41970;48.774;9.280;2022-09-13T17:46:20;24.20;77.90
56103;DHT22;41970;48.774;9.280;2022-09-13T17:48:47;23.90;78.40
56103;DHT22;41970;48.774;9.280;2022-09-13T17:51:23;23.80;78.90
56103;DHT22;41970;48.774;9.280;2022-09-13T17:54:00;23.70;79.20
56103;DHT22;41970;48.774;9.280;2022-09-13T17:56:29;23.80;79.50
56103;DHT22;41970;48.774;9.280;2022-09-13T17:58:56;24.00;79.30
56103;DHT22;41970;48.774;9.280;2022-09-13T18:01:27;24.00;79.70
56103;DHT22;41970;48.774;9.280;2022-09-13T18:03:54;24.00;79.60
56103;DHT22;41970;48.774;9.280;2022-09-13T18:06:20;24.00;79.70
56103;DHT22;41970;48.774;9.280;2022-09-13T18:08:46;24.00;80.20
56103;DHT22;41970;48.774;9.280;2022-09-13T18:11:14;24.00;79.60
56103;DHT22;41970;48.774;9.280;2022-09-13T18:13:44;24.10;79.60
56103;DHT22;41970;48.774;9.280;2022-09-13T18:16:16;24.10;79.80
56103;DHT22;41970;48.774;9.280;2022-09-13T18:18:42;24.20;79.70
56103;DHT22;41970;48.774;9.280;2022-09-13T18:21:11;24.20;79.50
56103;DHT22;41970;48.774;9.280;2022-09-13T18:23:39;24.20;79.60
56103;DHT22;41970;48.774;9.280;2022-09-13T18:26:13;24.30;79.80
56103;DHT22;41970;48.774;9.280;2022-09-13T18:28:39;24.30;79.50
56103;DHT22;41970;48.774;9.280;2022-09-13T18:31:16;24.20;79.70
56103;DHT22;41970;48.774;9.280;2022-09-13T18:33:43;24.20;79.90
56103;DHT22;41970;48.774;9.280;2022-09-13T18:36:14;24.20;80.20
56103;DHT22;41970;48.774;9.280;2022-09-13T18:38:46;24.10;80.00
56103;DHT22;41970;48.774;9.280;2022-09-13T18:41:15;24.10;80.40
56103;DHT22;41970;48.774;9.280;2022-09-13T18:43:43;24.10;80.80
56103;DHT22;41970;48.774;9.280;2022-09-13T18:46:12;24.00;80.70
56103;DHT22;41970;48.774;9.280;2022-09-13T18:48:44;24.00;80.40
56103;DHT22;41970;48.774;9.280;2022-09-13T18:51:13;23.90;80.70
56103;DHT22;41970;48.774;9.280;2022-09-13T18:53:40;23.90;80.90
56103;DHT22;41970;48.774;9.280;2022-09-13T18:56:08;23.90;81.50
56103;DHT22;41970;48.774;9.280;2022-09-13T18:58:36;23.80;81.70
56103;DHT22;41970;48.774;9.280;2022-09-13T19:01:03;23.80;81.80
56103;DHT22;41970;48.774;9.280;2022-09-13T19:03:31;23.80;82.20
56103;DHT22;41970;48.774;9.280;2022-09-13T19:06:11;23.70;82.10
56103;DHT22;41970;48.774;9.280;2022-09-13T19:08:39;23.70;82.60
56103;DHT22;41970;48.774;9.280;2022-09-13T19:11:06;23.70;82.70
56103;DHT22;41970;48.774;9.280;2022-09-13T19:13:33;23.60;83.20
56103;DHT22;41970;48.774;9.280;2022-09-13T19:16:01;23.50;83.90
56103;DHT22;41970;48.774;9.280;2022-09-13T19:18:28;23.30;83.80
56103;DHT22;41970;48.774;9.280;2022-09-13T19:23:33;23.00;84.40
56103;DHT22;41970;48.774;9.280;2022-09-13T19:26:11;23.10;84.80